Current | Forecast
Updated: 9:30 PM CET on December 13, 2017
Observed at Granada, Spain
Temperature 3°C
Humidity 81%
Dew Point 0°C
Wind Variable at 2 km/h
Pressure 1028 hPa (Rising)
Conditions Clear
Visibility -
UV N/A
Clouds
Yesterday's Maximum 11°C
Yesterday's Minimum 1°C approx.
Yesterday's Heating Degree Days 22 approx.
Sunrise8:20 AM CET
Sunset5:58 PM CET
Moon Rise3:39 AM CET
Moon Set3:23 PM CET
Moon PhaseMoon Phase
Waning Crescent
Raw METARMETAR LEGR 132030Z VRB01KT CAVOK 03/00 Q1028


Monday
. High: 91° F.
Tuesday
. High: 91° F.
Wednesday
. High: 77° F.
Thursday
. High: 82° F.
Friday
. High: 86° F.
Saturday
. High: 86° F.
Sunday
. High: 87° F.
Monday
. High: 93° F.

Click here for Marine Information
Scientific forecaster discussion (NWS)

Units: English | Metric

Find the Weather for any City, State or Zipcode, or Country:

U.S. State List | Severe Weather | Tropical Storms | Ski Conditions
United States | Canada | Central America | South America | Asia | Europe | Australia | Africa | Islands

Weather Underground

© Copyright 2017
The Weather Company, LLC